»·PEaware :: N653AW KPHX-KFAT

N653AW :: KPHX-KFAT

FLIGHT INFORMATION

Flight Status: Arrived
Operator: Privately registered:
United States
More flights under this callsign
Pilot: Sergei F. (8485)
Aircraft: AIRBUS A320
(A320)
More flights by this aircraft type
Origin: KPHX Phoenix Sky Harbor Intl
United States
Destination: KFAT Fresno Yosemite Intl
United States
More flights between these airports :: More routes between these airports
Route: +KEENS2 HRRBR CURIV J212 DECAS PMD J65 LANDO TTE ALTTA9
File this flight plan on PilotEdge
Remarks:
Altitude:
(Current/Filed)
38,000ft
Speed:
(Current/Filed)
400kts
Departed: 08-Nov-19 08:59 PM
Arrived: 08-Nov-19 10:17 PM
Distance/Time
Traveled:
428nm/1:18
Distance/Time
To Go:
Arrived

Flight Plot

Page will automatically refresh every two minutes.

Flight plan parsing failed; only flown route is shown


Map Options




Map Legend


Flown Route
Filed Route
Departure Airport
Arrival Airport
Navaid (VOR, NDB)
Fix

Horizontal Profiles

Position Reports

Time Latitude Longitude Heading Altitude Ground
Speed
08-Nov-19 20:24 33.433660 -111.999768 36 1128ft 0kts
08-Nov-19 20:25 33.433660 -111.999768 36 1128ft 0kts
08-Nov-19 20:26 33.433660 -111.999768 36 1128ft 0kts
08-Nov-19 20:27 33.433660 -111.999768 36 1128ft 0kts
08-Nov-19 20:28 33.433660 -111.999768 36 1128ft 0kts
08-Nov-19 20:29 33.433660 -111.999768 36 1128ft 0kts
08-Nov-19 20:30 33.433660 -111.999768 36 1128ft 0kts
08-Nov-19 20:31 33.433660 -111.999768 36 1128ft 0kts
08-Nov-19 20:32 33.433660 -111.999768 36 1128ft 0kts
08-Nov-19 20:33 33.433660 -111.999768 36 1128ft 0kts
08-Nov-19 20:34 33.433660 -111.999768 36 1128ft 0kts
08-Nov-19 20:35 33.433660 -111.999768 36 1128ft 0kts
08-Nov-19 20:36 33.433660 -111.999768 36 1128ft 0kts
08-Nov-19 20:37 33.433660 -111.999768 36 1128ft 0kts
08-Nov-19 20:38 33.433660 -111.999768 36 1128ft 0kts
08-Nov-19 20:39 33.433660 -111.999768 36 1128ft 0kts
08-Nov-19 20:40 33.433660 -111.999768 36 1128ft 0kts
08-Nov-19 20:41 33.433660 -111.999768 36 1128ft 0kts
08-Nov-19 20:42 33.433660 -111.999768 36 1128ft 0kts
08-Nov-19 20:43 33.433510 -111.999991 80 1128ft 2kts
08-Nov-19 20:44 33.433761 -112.000393 178 1128ft 1kts
08-Nov-19 20:45 33.433826 -112.000389 181 1128ft 0kts
08-Nov-19 20:46 33.433826 -112.000389 181 1128ft 0kts
08-Nov-19 20:47 33.433826 -112.000389 181 1128ft 0kts
08-Nov-19 20:48 33.433826 -112.000389 181 1128ft 0kts
08-Nov-19 20:49 33.433814 -112.000390 181 1128ft 0kts
08-Nov-19 20:50 33.432962 -112.000491 224 1128ft 6kts
08-Nov-19 20:51 33.432865 -112.004771 269 1127ft 16kts
08-Nov-19 20:52 33.432869 -112.009815 270 1128ft 17kts
08-Nov-19 20:53 33.432875 -112.015740 270 1123ft 20kts
08-Nov-19 20:54 33.432882 -112.020319 270 1121ft 10kts
08-Nov-19 20:55 33.432888 -112.024215 270 1117ft 14kts
08-Nov-19 20:56 33.431852 -112.026956 181 1115ft 8kts
08-Nov-19 20:57 33.431061 -112.025103 90 1116ft 30kts
08-Nov-19 20:58 33.430433 -111.981196 87 2598ft 177kts
08-Nov-19 20:59 33.433519 -111.903475 86 5601ft 238kts
08-Nov-19 21:00 33.383021 -111.847302 197 8998ft 268kts
08-Nov-19 21:01 33.356397 -111.930814 277 12502ft 282kts
08-Nov-19 21:02 33.367291 -112.036481 280 15682ft 299kts
08-Nov-19 21:03 33.384631 -112.153231 279 18742ft 314kts
08-Nov-19 21:04 33.401779 -112.269397 278 21118ft 320kts
08-Nov-19 21:05 33.419270 -112.388637 278 23033ft 329kts
08-Nov-19 21:06 33.435849 -112.502532 277 23605ft 343kts
08-Nov-19 21:07 33.450617 -112.632738 268 24588ft 386kts
08-Nov-19 21:09 33.452325 -112.766937 268 26345ft 395kts
08-Nov-19 21:10 33.469790 -112.890910 279 27893ft 404kts
08-Nov-19 21:11 33.491324 -113.006307 279 29186ft 409kts
08-Nov-19 21:12 33.513319 -113.124802 279 30392ft 414kts
08-Nov-19 21:13 33.536582 -113.250842 280 31534ft 419kts
08-Nov-19 21:14 33.563412 -113.397146 279 32700ft 424kts
08-Nov-19 21:15 33.591482 -113.550494 280 33753ft 429kts
08-Nov-19 21:16 33.617248 -113.688537 280 34573ft 434kts
08-Nov-19 21:17 33.643228 -113.828981 280 35806ft 426kts
08-Nov-19 21:18 33.668557 -113.966675 280 36710ft 424kts
08-Nov-19 21:19 33.693846 -114.104965 280 37442ft 424kts
08-Nov-19 21:20 33.718925 -114.243033 279 38060ft 425kts
08-Nov-19 21:21 33.744304 -114.383674 280 38118ft 438kts
08-Nov-19 21:22 33.770061 -114.528424 278 38117ft 448kts
08-Nov-19 21:23 33.780741 -114.675843 271 38117ft 446kts
08-Nov-19 21:24 33.788983 -114.819426 271 38112ft 445kts
08-Nov-19 21:25 33.797356 -114.968266 271 38109ft 445kts
08-Nov-19 21:26 33.805513 -115.116469 271 38094ft 447kts
08-Nov-19 21:27 33.813380 -115.262843 272 38099ft 449kts
08-Nov-19 21:27 33.820004 -115.388768 272 38114ft 451kts
08-Nov-19 21:29 33.856377 -115.558209 290 38131ft 456kts
08-Nov-19 21:29 33.892118 -115.669307 289 38125ft 456kts
08-Nov-19 21:30 33.937830 -115.812052 289 38131ft 455kts
08-Nov-19 21:31 33.983074 -115.953971 289 38177ft 455kts
08-Nov-19 21:33 34.035602 -116.119574 289 38235ft 455kts
08-Nov-19 21:33 34.072953 -116.237871 289 38242ft 455kts
08-Nov-19 21:34 34.116474 -116.376300 289 38198ft 455kts
08-Nov-19 21:35 34.161506 -116.520217 289 38189ft 454kts
08-Nov-19 21:36 34.204417 -116.657995 288 38152ft 455kts
08-Nov-19 21:37 34.246113 -116.792484 288 38167ft 455kts
08-Nov-19 21:38 34.291188 -116.938560 288 38186ft 455kts
08-Nov-19 21:39 34.334187 -117.078545 288 38163ft 457kts
08-Nov-19 21:40 34.377382 -117.219684 288 38198ft 460kts
08-Nov-19 21:41 34.421238 -117.363702 288 38298ft 462kts
08-Nov-19 21:42 34.464865 -117.507677 288 38301ft 462kts
08-Nov-19 21:43 34.508217 -117.651444 288 38286ft 462kts
08-Nov-19 21:44 34.550982 -117.793963 288 38270ft 462kts
08-Nov-19 21:45 34.594258 -117.938898 288 38264ft 462kts
08-Nov-19 21:46 34.643654 -118.080106 304 38269ft 466kts
08-Nov-19 21:47 34.726277 -118.200568 309 38275ft 466kts
08-Nov-19 21:48 34.809222 -118.320615 309 38268ft 466kts
08-Nov-19 21:49 34.892027 -118.440844 308 38305ft 465kts
08-Nov-19 21:50 34.970230 -118.554756 309 38207ft 477kts
08-Nov-19 21:51 35.077808 -118.645486 345 36357ft 478kts
08-Nov-19 21:52 35.194376 -118.697260 344 33507ft 486kts
08-Nov-19 21:53 35.321101 -118.753905 344 30583ft 486kts
08-Nov-19 21:54 35.446469 -118.810089 343 27373ft 488kts
08-Nov-19 21:55 35.573082 -118.867030 343 24392ft 477kts
08-Nov-19 21:56 35.680565 -118.915643 343 23645ft 435kts
08-Nov-19 21:57 35.795376 -118.967421 342 20157ft 448kts
08-Nov-19 21:58 35.907344 -119.018325 341 16811ft 403kts
08-Nov-19 21:59 36.004043 -119.064141 340 15021ft 354kts
08-Nov-19 22:00 36.088700 -119.104494 340 13056ft 309kts
08-Nov-19 22:01 36.163656 -119.140217 340 10962ft 287kts
08-Nov-19 22:02 36.234104 -119.173891 340 9974ft 270kts
08-Nov-19 22:03 36.301831 -119.206311 340 9050ft 254kts
08-Nov-19 22:04 36.366840 -119.237496 340 8019ft 248kts
08-Nov-19 22:05 36.427439 -119.273772 315 6975ft 240kts
08-Nov-19 22:06 36.468396 -119.330442 313 6161ft 206kts
08-Nov-19 22:07 36.506362 -119.383060 313 4966ft 201kts
08-Nov-19 22:08 36.543237 -119.433590 315 3804ft 196kts
08-Nov-19 22:09 36.583883 -119.478237 319 3307ft 195kts
08-Nov-19 22:10 36.623832 -119.523473 318 2807ft 191kts
08-Nov-19 22:11 36.664048 -119.566480 320 2460ft 190kts
08-Nov-19 22:12 36.702818 -119.610475 318 2264ft 186kts
08-Nov-19 22:13 36.735811 -119.650129 313 1369ft 140kts
08-Nov-19 22:14 36.758614 -119.685657 305 727ft 136kts
08-Nov-19 22:15 36.776605 -119.717119 305 337ft 44kts
08-Nov-19 22:16 36.779669 -119.724119 216 337ft 11kts
08-Nov-19 22:17 36.778086 -119.725524 214 337ft 1kts
08-Nov-19 22:18 36.776571 -119.723580 124 335ft 16kts
08-Nov-19 22:19 36.774179 -119.720000 154 334ft 9kts
08-Nov-19 22:20 36.772232 -119.719671 214 334ft 4kts
08-Nov-19 22:21 36.771566 -119.719198 125 334ft 1kts
08-Nov-19 22:22 36.771541 -119.719154 124 334ft 0kts
08-Nov-19 22:23 36.771541 -119.719154 124 334ft 0kts

Navigation Log

Ident Type
Flight plan parsing failed, navigation log unavailable